createdAt,value
2022-10-05T00:01:46.579Z,18.30
2022-10-05T00:04:19.863Z,18.31
2022-10-05T00:06:56.099Z,18.32
2022-10-05T00:09:23.351Z,18.33
2022-10-05T00:11:51.393Z,18.34
2022-10-05T00:14:22.515Z,18.36
2022-10-05T00:16:50.339Z,18.36
2022-10-05T00:19:32.512Z,18.34
2022-10-05T00:22:13.909Z,18.33
2022-10-05T00:24:40.687Z,18.32
2022-10-05T00:27:21.385Z,18.33
2022-10-05T00:29:50.690Z,18.33
2022-10-05T00:32:18.117Z,18.33
2022-10-05T00:34:46.203Z,18.36
2022-10-05T00:37:14.449Z,18.38
2022-10-05T00:39:42.554Z,18.38
2022-10-05T00:42:37.724Z,18.39
2022-10-05T00:45:19.100Z,18.41
2022-10-05T00:47:57.840Z,18.37
2022-10-05T00:50:52.610Z,18.38
2022-10-05T00:53:43.165Z,18.39
2022-10-05T00:56:34.449Z,18.39
2022-10-05T00:59:40.640Z,18.37
2022-10-05T01:02:15.618Z,18.38
2022-10-05T01:04:59.401Z,18.38
2022-10-05T01:07:41.143Z,18.39
2022-10-05T01:10:22.736Z,18.40
2022-10-05T01:13:24.258Z,18.42
2022-10-05T01:16:29.706Z,18.41
2022-10-05T01:19:40.156Z,18.45
2022-10-05T01:22:38.077Z,18.45
2022-10-05T01:25:31.089Z,18.48
2022-10-05T01:28:04.264Z,18.48
2022-10-05T01:30:43.161Z,18.48
2022-10-05T01:33:22.741Z,18.47
2022-10-05T01:35:55.728Z,18.49
2022-10-05T01:39:02.079Z,18.51
2022-10-05T01:41:41.376Z,18.51
2022-10-05T01:44:26.846Z,18.51
2022-10-05T01:47:30.911Z,18.49
2022-10-05T01:50:04.799Z,18.50
2022-10-05T01:52:40.635Z,18.51
2022-10-05T01:55:23.106Z,18.51
2022-10-05T01:57:58.891Z,18.51
2022-10-05T02:00:25.767Z,18.53
2022-10-05T02:03:00.086Z,18.54
2022-10-05T02:05:52.700Z,18.56
2022-10-05T02:08:29.931Z,18.52
2022-10-05T02:11:03.821Z,18.50
2022-10-05T02:13:47.752Z,18.50
2022-10-05T02:16:20.936Z,18.49
2022-10-05T02:19:08.911Z,18.49
2022-10-05T02:21:36.912Z,18.48
2022-10-05T02:24:10.029Z,18.50
2022-10-05T02:26:39.146Z,18.48
2022-10-05T02:29:13.980Z,18.50
2022-10-05T02:31:47.937Z,18.49
2022-10-05T02:34:38.421Z,18.52
2022-10-05T02:37:30.257Z,18.53
2022-10-05T02:40:15.500Z,18.55
2022-10-05T02:43:05.443Z,18.55
2022-10-05T02:45:47.623Z,18.53
2022-10-05T02:48:29.124Z,18.51
2022-10-05T02:51:17.464Z,18.50
2022-10-05T02:53:59.070Z,18.46
2022-10-05T02:56:30.564Z,18.46
2022-10-05T02:59:17.831Z,18.46
2022-10-05T03:01:51.967Z,18.45
2022-10-05T03:04:33.193Z,18.46
2022-10-05T03:07:15.096Z,18.48
2022-10-05T03:09:51.295Z,18.49
2022-10-05T03:12:58.542Z,18.51
2022-10-05T03:15:50.270Z,18.49
2022-10-05T03:18:40.090Z,18.50
2022-10-05T03:21:09.397Z,18.48
2022-10-05T03:24:03.970Z,18.46
2022-10-05T03:26:49.409Z,18.48
2022-10-05T03:29:29.161Z,18.49
2022-10-05T03:32:33.627Z,18.49
2022-10-05T03:35:07.399Z,18.46
2022-10-05T03:38:02.098Z,18.46
2022-10-05T03:40:52.705Z,18.44
2022-10-05T03:43:31.620Z,18.44
2022-10-05T03:46:03.505Z,18.41
2022-10-05T03:48:38.800Z,18.38
2022-10-05T03:51:21.567Z,18.39
2022-10-05T03:54:12.275Z,18.41
2022-10-05T03:56:44.208Z,18.44
2022-10-05T03:59:38.566Z,18.43
2022-10-05T04:02:14.261Z,18.42
2022-10-05T04:04:57.758Z,18.43
2022-10-05T04:07:47.041Z,18.45
2022-10-05T04:10:20.556Z,18.43
2022-10-05T04:13:09.618Z,18.43
2022-10-05T04:15:42.690Z,18.45
2022-10-05T04:18:26.498Z,18.48
2022-10-05T04:21:00.173Z,18.49
2022-10-05T04:23:55.730Z,18.51
2022-10-05T04:26:40.830Z,18.51
2022-10-05T04:29:14.378Z,18.53
2022-10-05T04:31:59.722Z,18.54
2022-10-05T04:34:47.617Z,18.57
2022-10-05T04:37:31.157Z,18.60
2022-10-05T04:39:59.145Z,18.59
2022-10-05T04:42:36.561Z,18.60
2022-10-05T04:45:06.327Z,18.59
2022-10-05T04:48:16.691Z,18.58
2022-10-05T04:51:04.652Z,18.54
2022-10-05T04:53:39.689Z,18.53
2022-10-05T04:56:30.131Z,18.54
2022-10-05T04:59:21.530Z,18.52
2022-10-05T05:02:11.544Z,18.53
2022-10-05T05:04:59.590Z,18.50
2022-10-05T05:08:13.283Z,18.49
2022-10-05T05:11:37.264Z,18.49
2022-10-05T05:14:18.671Z,18.49
2022-10-05T05:16:54.941Z,18.50
2022-10-05T05:19:46.496Z,18.50
2022-10-05T05:22:29.489Z,18.48
2022-10-05T05:25:14.943Z,18.48
2022-10-05T05:27:47.554Z,18.45
2022-10-05T05:30:17.177Z,18.44
2022-10-05T05:32:56.215Z,18.41
2022-10-05T05:36:07.733Z,18.41
2022-10-05T05:38:49.699Z,18.40
2022-10-05T05:41:39.381Z,18.42
2022-10-05T05:44:22.378Z,18.40
2022-10-05T05:47:14.277Z,18.37
2022-10-05T05:49:47.230Z,18.35
2022-10-05T05:52:28.432Z,18.34
2022-10-05T05:54:57.870Z,18.38
2022-10-05T05:57:59.993Z,18.36
2022-10-05T06:00:44.407Z,18.33
2022-10-05T06:03:44.508Z,18.35
2022-10-05T06:06:15.943Z,18.31
2022-10-05T06:08:47.466Z,18.32
2022-10-05T06:11:24.257Z,18.36
2022-10-05T06:13:52.134Z,18.38
2022-10-05T06:16:25.921Z,18.38
2022-10-05T06:18:59.318Z,18.37
2022-10-05T06:21:55.619Z,18.38
2022-10-05T06:24:31.284Z,18.38
2022-10-05T06:27:07.039Z,18.38
2022-10-05T06:30:13.798Z,18.38
2022-10-05T06:33:01.708Z,18.38
2022-10-05T06:35:49.735Z,18.38
2022-10-05T06:38:19.062Z,18.44
2022-10-05T06:41:36.899Z,18.46
2022-10-05T06:44:36.290Z,18.47
2022-10-05T06:47:18.752Z,18.46
2022-10-05T06:49:51.110Z,18.44
2022-10-05T06:52:45.861Z,18.47
2022-10-05T06:55:18.928Z,18.49
2022-10-05T06:58:00.233Z,18.51
2022-10-05T07:00:43.855Z,18.53
2022-10-05T07:03:22.431Z,18.55
2022-10-05T07:05:58.260Z,18.58
2022-10-05T07:09:00.774Z,18.54
2022-10-05T07:11:52.932Z,18.53
2022-10-05T07:14:35.216Z,18.52
2022-10-05T07:17:36.843Z,18.50
2022-10-05T07:20:26.807Z,18.51
2022-10-05T07:23:33.024Z,18.54
2022-10-05T07:26:34.912Z,18.59
2022-10-05T07:29:07.454Z,18.62
2022-10-05T07:32:03.123Z,18.67
2022-10-05T07:34:57.151Z,18.71
2022-10-05T07:37:55.132Z,18.75
2022-10-05T07:40:28.145Z,18.75
2022-10-05T07:43:14.644Z,18.75
2022-10-05T07:46:07.009Z,18.76
2022-10-05T07:49:00.779Z,18.77
2022-10-05T07:51:39.023Z,18.76
2022-10-05T07:54:17.819Z,18.79
2022-10-05T07:56:49.974Z,18.81
2022-10-05T07:59:38.878Z,18.82
2022-10-05T08:02:21.980Z,18.83
2022-10-05T08:05:14.548Z,18.83
2022-10-05T08:07:41.900Z,18.83
2022-10-05T08:10:34.146Z,18.84
2022-10-05T08:13:42.462Z,18.87
2022-10-05T08:16:15.037Z,18.91
2022-10-05T08:18:59.493Z,18.95
2022-10-05T08:21:35.715Z,18.97
2022-10-05T08:24:39.961Z,19.00
2022-10-05T08:27:41.801Z,18.95
2022-10-05T08:30:12.234Z,18.96
2022-10-05T08:32:57.963Z,18.97
2022-10-05T08:35:35.657Z,18.96
2022-10-05T08:38:11.048Z,18.96
2022-10-05T08:41:05.168Z,18.97
2022-10-05T08:43:55.829Z,19.00
2022-10-05T08:46:48.819Z,18.99
2022-10-05T08:49:21.288Z,19.01
2022-10-05T08:51:48.455Z,19.04
2022-10-05T08:54:15.532Z,19.07
2022-10-05T08:56:48.592Z,19.06
2022-10-05T08:59:34.182Z,19.09
2022-10-05T09:02:31.558Z,19.11
2022-10-05T09:05:23.072Z,19.12
2022-10-05T09:08:08.855Z,19.15
2022-10-05T09:11:09.795Z,19.17
2022-10-05T09:14:07.159Z,19.14
2022-10-05T09:16:52.543Z,19.16
2022-10-05T09:19:37.784Z,19.17
2022-10-05T09:22:38.624Z,19.19
2022-10-05T09:25:30.938Z,19.21
2022-10-05T09:28:12.941Z,19.21
2022-10-05T09:30:58.047Z,19.22
2022-10-05T09:33:44.656Z,19.25
2022-10-05T09:36:33.028Z,19.27
2022-10-05T09:39:41.345Z,19.31
2022-10-05T09:42:25.585Z,19.33
2022-10-05T09:45:26.107Z,19.34
2022-10-05T09:48:07.942Z,19.36
2022-10-05T09:50:44.444Z,19.39
2022-10-05T09:53:52.334Z,19.43
2022-10-05T09:56:45.462Z,19.45
2022-10-05T09:59:44.340Z,19.48
2022-10-05T10:03:10.633Z,19.53
2022-10-05T10:05:53.679Z,19.56
2022-10-05T10:08:41.056Z,19.60
2022-10-05T10:11:18.520Z,19.61
2022-10-05T10:14:44.603Z,19.64
2022-10-05T10:17:26.893Z,19.66
2022-10-05T10:20:18.426Z,19.66
2022-10-05T10:23:08.416Z,19.68
2022-10-05T10:25:59.941Z,19.69
2022-10-05T10:28:49.168Z,19.66
2022-10-05T10:31:34.550Z,19.65
2022-10-05T10:34:34.367Z,19.58
2022-10-05T10:37:29.034Z,19.60
2022-10-05T10:40:30.838Z,19.62
2022-10-05T10:43:39.505Z,19.63
2022-10-05T10:46:57.391Z,19.64
2022-10-05T10:49:42.320Z,19.64
2022-10-05T10:52:22.949Z,19.63
2022-10-05T10:54:53.701Z,19.66
2022-10-05T10:57:32.829Z,19.67
2022-10-05T11:00:23.943Z,19.68
2022-10-05T11:03:23.024Z,19.68
2022-10-05T11:06:12.605Z,19.68
2022-10-05T11:09:11.174Z,19.70
2022-10-05T11:12:00.164Z,19.70
2022-10-05T11:14:52.635Z,19.74
2022-10-05T11:17:25.726Z,19.68
2022-10-05T11:20:19.129Z,19.68
2022-10-05T11:23:21.047Z,19.67
2022-10-05T11:26:18.397Z,19.67
2022-10-05T11:29:03.671Z,19.64
2022-10-05T11:31:45.981Z,19.66
2022-10-05T11:34:37.921Z,19.61
2022-10-05T11:37:13.649Z,19.59
2022-10-05T11:40:02.962Z,19.55
2022-10-05T11:42:44.835Z,19.49
2022-10-05T11:45:21.939Z,19.48
2022-10-05T11:47:54.536Z,19.46
2022-10-05T11:50:27.711Z,19.45
2022-10-05T11:53:25.763Z,19.47
2022-10-05T11:56:13.379Z,19.46
2022-10-05T11:58:47.362Z,19.42
2022-10-05T12:01:34.925Z,19.39
2022-10-05T12:04:39.702Z,19.36
2022-10-05T12:07:31.569Z,19.31
2022-10-05T12:10:21.373Z,19.26
2022-10-05T12:12:59.195Z,19.19
2022-10-05T12:15:32.042Z,19.11
2022-10-05T12:18:20.023Z,19.10
2022-10-05T12:20:49.149Z,19.10
2022-10-05T12:23:40.548Z,19.08
2022-10-05T12:26:15.059Z,19.10
2022-10-05T12:28:50.193Z,19.10
2022-10-05T12:31:29.859Z,19.06
2022-10-05T12:34:00.602Z,18.97
2022-10-05T12:37:10.291Z,18.93
2022-10-05T12:40:02.046Z,18.87
2022-10-05T12:42:39.390Z,18.85
2022-10-05T12:45:24.868Z,18.82
2022-10-05T12:48:00.731Z,18.86
2022-10-05T12:50:42.172Z,18.83
2022-10-05T12:53:39.642Z,18.76
2022-10-05T12:56:14.723Z,18.74
2022-10-05T12:58:43.093Z,18.76
2022-10-05T13:01:34.486Z,18.77
2022-10-05T13:04:17.590Z,18.75
2022-10-05T13:07:16.600Z,18.72
2022-10-05T13:10:13.886Z,18.74
2022-10-05T13:12:41.094Z,18.76
2022-10-05T13:15:26.510Z,18.77
2022-10-05T13:18:05.444Z,18.79
2022-10-05T13:20:49.582Z,18.82
2022-10-05T13:23:35.834Z,18.80
2022-10-05T13:26:19.862Z,18.80
2022-10-05T13:29:18.136Z,18.77
2022-10-05T13:31:54.482Z,18.76
2022-10-05T13:34:51.851Z,18.74
2022-10-05T13:37:38.043Z,18.77
2022-10-05T13:40:36.874Z,18.78
2022-10-05T13:43:15.209Z,18.78
2022-10-05T13:45:55.785Z,18.72
2022-10-05T13:48:52.566Z,18.68
2022-10-05T13:51:27.668Z,18.66
2022-10-05T13:54:09.116Z,18.57
2022-10-05T13:56:45.422Z,18.49
2022-10-05T13:59:38.265Z,18.47
2022-10-05T14:02:21.437Z,18.48
2022-10-05T14:05:14.463Z,18.45
2022-10-05T14:08:03.077Z,18.46
2022-10-05T14:10:45.364Z,18.34
2022-10-05T14:13:20.872Z,18.25
2022-10-05T14:16:13.657Z,18.20
2022-10-05T14:18:51.962Z,18.15
2022-10-05T14:21:24.423Z,18.14
2022-10-05T14:23:53.926Z,18.14
2022-10-05T14:26:36.181Z,18.17
2022-10-05T14:29:17.673Z,18.22
2022-10-05T14:32:32.516Z,18.22
2022-10-05T14:35:15.371Z,18.26
2022-10-05T14:37:56.284Z,18.24
2022-10-05T14:40:25.122Z,18.25
2022-10-05T14:42:52.807Z,18.20
2022-10-05T14:45:25.988Z,18.18
2022-10-05T14:48:13.203Z,18.19
2022-10-05T14:51:04.456Z,18.25
2022-10-05T14:54:15.104Z,18.27
2022-10-05T14:57:03.377Z,18.29
2022-10-05T14:59:47.090Z,18.35
2022-10-05T15:02:32.075Z,18.37
2022-10-05T15:05:14.524Z,18.42
2022-10-05T15:07:49.367Z,18.46
2022-10-05T15:10:41.242Z,18.47
2022-10-05T15:13:29.927Z,18.49
2022-10-05T15:16:19.587Z,18.47
2022-10-05T15:18:53.075Z,18.43
2022-10-05T15:21:29.683Z,18.35
2022-10-05T15:24:02.464Z,18.28
2022-10-05T15:26:36.546Z,18.25
2022-10-05T15:29:31.361Z,18.16
2022-10-05T15:32:00.970Z,18.09
2022-10-05T15:34:32.935Z,18.13
2022-10-05T15:37:16.308Z,18.12
2022-10-05T15:39:57.966Z,18.14
2022-10-05T15:42:38.447Z,18.07
2022-10-05T15:45:23.629Z,18.05
2022-10-05T15:48:00.280Z,17.99
2022-10-05T15:50:28.464Z,17.93
2022-10-05T15:53:19.972Z,17.87
2022-10-05T15:56:31.723Z,17.81
2022-10-05T15:59:40.489Z,17.82
2022-10-05T16:02:31.069Z,17.80
2022-10-05T16:05:06.747Z,17.76
2022-10-05T16:08:02.130Z,17.74
2022-10-05T16:10:34.298Z,17.66
2022-10-05T16:13:20.086Z,17.66
2022-10-05T16:15:55.102Z,17.66
2022-10-05T16:18:35.591Z,17.67
2022-10-05T16:21:10.670Z,17.68
2022-10-05T16:23:58.379Z,17.67
2022-10-05T16:26:49.869Z,17.63
2022-10-05T16:29:29.900Z,17.56
2022-10-05T16:32:02.559Z,17.59
2022-10-05T16:34:45.192Z,17.60
2022-10-05T16:37:42.500Z,17.60
2022-10-05T16:40:38.008Z,17.59
2022-10-05T16:43:20.026Z,17.55
2022-10-05T16:45:52.749Z,17.52
2022-10-05T16:48:26.856Z,17.52
2022-10-05T16:51:16.895Z,17.51
2022-10-05T16:54:18.182Z,17.48
2022-10-05T16:57:17.660Z,17.49
2022-10-05T16:59:47.294Z,17.52
2022-10-05T17:02:39.356Z,17.51
2022-10-05T17:05:38.868Z,17.47
2022-10-05T17:08:15.270Z,17.46
2022-10-05T17:11:05.551Z,17.46
2022-10-05T17:14:10.058Z,17.47
2022-10-05T17:17:17.416Z,17.46
2022-10-05T17:19:59.386Z,17.41
2022-10-05T17:22:36.268Z,17.34
2022-10-05T17:25:24.448Z,17.31
2022-10-05T17:27:53.199Z,17.25
2022-10-05T17:30:46.877Z,17.27
2022-10-05T17:33:29.996Z,17.26
2022-10-05T17:36:18.239Z,17.25
2022-10-05T17:38:48.702Z,17.22
2022-10-05T17:41:15.587Z,17.16
2022-10-05T17:44:19.432Z,17.08
2022-10-05T17:46:51.509Z,17.07
2022-10-05T17:49:20.998Z,17.13
2022-10-05T17:52:06.271Z,17.15
2022-10-05T17:55:15.615Z,17.22
2022-10-05T17:57:42.414Z,17.19
2022-10-05T18:00:33.725Z,17.18
2022-10-05T18:03:00.614Z,17.20
2022-10-05T18:05:29.387Z,17.18
2022-10-05T18:08:16.595Z,17.16
2022-10-05T18:11:10.405Z,17.12
2022-10-05T18:13:50.307Z,17.04
2022-10-05T18:16:54.784Z,17.03
2022-10-05T18:19:22.810Z,17.02
2022-10-05T18:22:21.085Z,17.01
2022-10-05T18:25:04.085Z,17.00
2022-10-05T18:27:49.232Z,16.97
2022-10-05T18:30:21.894Z,16.93
2022-10-05T18:32:51.572Z,16.89
2022-10-05T18:35:59.942Z,16.84
2022-10-05T18:38:48.667Z,16.79
2022-10-05T18:41:39.009Z,16.77
2022-10-05T18:44:05.738Z,16.78
2022-10-05T18:46:44.629Z,16.82
2022-10-05T18:49:48.068Z,16.84
2022-10-05T18:52:32.259Z,16.84
2022-10-05T18:55:20.974Z,16.79
2022-10-05T18:58:06.594Z,16.76
2022-10-05T19:00:53.969Z,16.71
2022-10-05T19:03:32.899Z,16.60
2022-10-05T19:06:25.072Z,16.59
2022-10-05T19:09:21.595Z,16.59
2022-10-05T19:11:52.173Z,16.51
2022-10-05T19:14:47.384Z,16.39
2022-10-05T19:17:26.050Z,16.40
2022-10-05T19:20:17.585Z,16.38
2022-10-05T19:22:56.222Z,16.31
2022-10-05T19:26:00.077Z,16.24
2022-10-05T19:28:27.043Z,16.30
2022-10-05T19:31:12.479Z,16.33
2022-10-05T19:34:06.444Z,16.35
2022-10-05T19:36:52.028Z,16.31
2022-10-05T19:39:37.472Z,16.24
2022-10-05T19:42:23.874Z,16.22
2022-10-05T19:45:22.340Z,16.25
2022-10-05T19:48:20.514Z,16.26
2022-10-05T19:51:02.313Z,16.30
2022-10-05T19:53:29.352Z,16.23
2022-10-05T19:56:16.733Z,16.20
2022-10-05T19:58:44.294Z,16.15
2022-10-05T20:01:14.300Z,16.10
2022-10-05T20:03:48.034Z,16.08
2022-10-05T20:06:15.606Z,16.04
2022-10-05T20:08:45.647Z,16.01
2022-10-05T20:11:20.696Z,16.02
2022-10-05T20:14:09.657Z,16.07
2022-10-05T20:16:56.715Z,16.11
2022-10-05T20:19:51.402Z,16.13
2022-10-05T20:22:28.831Z,16.09
2022-10-05T20:25:07.554Z,16.07
2022-10-05T20:27:49.309Z,16.04
2022-10-05T20:30:21.366Z,15.99
2022-10-05T20:32:53.083Z,15.98
2022-10-05T20:35:23.891Z,15.99
2022-10-05T20:37:50.740Z,16.01
2022-10-05T20:40:18.933Z,16.03
2022-10-05T20:42:46.372Z,15.94
2022-10-05T20:45:14.189Z,15.90
2022-10-05T20:47:40.988Z,15.81
2022-10-05T20:50:09.840Z,15.76
2022-10-05T20:52:40.163Z,15.78
2022-10-05T20:55:09.667Z,15.82
2022-10-05T20:57:41.701Z,15.88
2022-10-05T21:00:12.552Z,15.87
2022-10-05T21:02:39.719Z,15.87
2022-10-05T21:05:07.904Z,15.82
2022-10-05T21:07:34.941Z,15.77
2022-10-05T21:10:03.514Z,15.72
2022-10-05T21:12:30.427Z,15.73
2022-10-05T21:14:57.177Z,15.69
2022-10-05T21:17:23.934Z,15.71
2022-10-05T21:19:50.756Z,15.73
2022-10-05T21:22:19.084Z,15.70
2022-10-05T21:24:46.134Z,15.67
2022-10-05T21:27:12.921Z,15.64
2022-10-05T21:29:41.373Z,15.60
2022-10-05T21:32:21.017Z,15.56
2022-10-05T21:34:47.734Z,15.56
2022-10-05T21:37:15.584Z,15.57
2022-10-05T21:39:42.469Z,15.56
2022-10-05T21:42:09.176Z,15.56
2022-10-05T21:44:35.870Z,15.55
2022-10-05T21:47:04.410Z,15.58
2022-10-05T21:49:31.349Z,15.53
2022-10-05T21:52:00.232Z,15.46
2022-10-05T21:54:28.793Z,15.41
2022-10-05T21:56:57.854Z,15.40
2022-10-05T21:59:29.173Z,15.39
2022-10-05T22:01:55.967Z,15.40
2022-10-05T22:04:22.876Z,15.40
2022-10-05T22:07:00.337Z,15.42
2022-10-05T22:09:27.829Z,15.37
2022-10-05T22:11:55.058Z,15.30
2022-10-05T22:14:21.893Z,15.27
2022-10-05T22:16:49.234Z,15.26
2022-10-05T22:19:19.571Z,15.26
2022-10-05T22:21:46.332Z,15.21
2022-10-05T22:24:13.086Z,15.16
2022-10-05T22:26:42.390Z,15.14
2022-10-05T22:29:09.986Z,15.11
2022-10-05T22:31:37.321Z,15.08
2022-10-05T22:34:04.274Z,15.09
2022-10-05T22:36:31.151Z,15.10
2022-10-05T22:38:57.938Z,15.10
2022-10-05T22:41:24.721Z,15.04
2022-10-05T22:43:52.174Z,15.03
2022-10-05T22:46:20.051Z,15.08
2022-10-05T22:48:47.108Z,15.15
2022-10-05T22:51:26.984Z,15.16
2022-10-05T22:54:37.086Z,15.20
2022-10-05T22:57:04.385Z,15.16
2022-10-05T22:59:31.542Z,15.06
2022-10-05T23:01:58.751Z,15.03
2022-10-05T23:04:25.757Z,15.04
2022-10-05T23:06:52.503Z,15.06
2022-10-05T23:09:19.280Z,15.09
2022-10-05T23:11:52.059Z,15.01
2022-10-05T23:14:19.626Z,15.00
2022-10-05T23:16:46.588Z,14.99
2022-10-05T23:19:13.940Z,14.98
2022-10-05T23:21:41.068Z,14.99
2022-10-05T23:24:07.923Z,14.94
2022-10-05T23:26:35.074Z,14.94
2022-10-05T23:29:08.039Z,14.99
2022-10-05T23:31:36.756Z,14.95
2022-10-05T23:34:03.626Z,14.91
2022-10-05T23:36:39.696Z,14.92
2022-10-05T23:39:06.568Z,14.92
2022-10-05T23:41:33.977Z,14.90
2022-10-05T23:44:00.815Z,14.91
2022-10-05T23:46:27.725Z,14.94
2022-10-05T23:48:54.640Z,14.95
2022-10-05T23:51:21.497Z,14.97
2022-10-05T23:53:48.269Z,14.96
2022-10-05T23:56:15.219Z,14.96
2022-10-05T23:58:42.154Z,14.94
